Phoenix, Arizona
Traffic Map
Current Weather Conditions
Phoenix, Arizona
Clear
Clear
15°
Feels Like: 15°
Wind Chill: 15° Ceiling: Unl
Heat Index: 15° Visibility: 10mi
Dew Point: Wind: 7mph
Humidity: 38% Direction: 100° (E)
Pressure: 29.9in Gusts: 0mph
Raw Report DataKPHX 290651Z 10006KT 10SM CLR 15/01 A2990 RMK AO2 SLP115 T01500006 402890111
Traffic Incident Summary
Active as of:
Severity:
Category:
InformationThere was an issue retrieving the traffic information for this location. Please try a different location or try again shortly.
Advertisements
Track Severe Weather on mobile